sensor_id;sensor_type;location;lat;lon;timestamp;pressure;altitude;pressure_sealevel;temperature;humidity
83733;BME280;73710;49.968;8.338;2024-01-07T05:04:35;100405.25;;;3.88;100.00
83733;BME280;73710;49.968;8.338;2024-01-07T05:07:01;100401.78;;;3.87;100.00
83733;BME280;73710;49.968;8.338;2024-01-07T05:09:26;100400.88;;;3.90;100.00
83733;BME280;73710;49.968;8.338;2024-01-07T05:11:51;100402.88;;;3.79;100.00
83733;BME280;73710;49.968;8.338;2024-01-07T05:14:17;100403.81;;;3.76;100.00
83733;BME280;73710;49.968;8.338;2024-01-07T05:16:42;100408.69;;;3.88;100.00
83733;BME280;73710;49.968;8.338;2024-01-07T05:19:07;100420.88;;;3.86;100.00
83733;BME280;73710;49.968;8.338;2024-01-07T05:21:33;100426.19;;;3.83;100.00
83733;BME280;73710;49.968;8.338;2024-01-07T05:23:58;100426.03;;;3.89;100.00
83733;BME280;73710;49.968;8.338;2024-01-07T05:26:23;100433.91;;;3.86;100.00
83733;BME280;73710;49.968;8.338;2024-01-07T05:28:49;100431.13;;;3.92;100.00
83733;BME280;73710;49.968;8.338;2024-01-07T05:31:17;100418.28;;;3.86;100.00
83733;BME280;73710;49.968;8.338;2024-01-07T05:33:44;100438.78;;;3.98;100.00
83733;BME280;73710;49.968;8.338;2024-01-07T05:36:13;100442.19;;;4.00;100.00
83733;BME280;73710;49.968;8.338;2024-01-07T05:38:38;100443.91;;;4.01;100.00
83733;BME280;73710;49.968;8.338;2024-01-07T05:41:04;100448.03;;;4.10;100.00
83733;BME280;73710;49.968;8.338;2024-01-07T05:43:30;100437.75;;;4.05;100.00
83733;BME280;73710;49.968;8.338;2024-01-07T05:45:55;100445.59;;;4.04;100.00
83733;BME280;73710;49.968;8.338;2024-01-07T05:48:21;100455.22;;;4.00;100.00
83733;BME280;73710;49.968;8.338;2024-01-07T05:50:47;100459.56;;;4.00;100.00
83733;BME280;73710;49.968;8.338;2024-01-07T05:53:12;100461.22;;;4.02;100.00
83733;BME280;73710;49.968;8.338;2024-01-07T05:55:38;100470.59;;;4.09;100.00
83733;BME280;73710;49.968;8.338;2024-01-07T05:58:03;100472.34;;;4.09;100.00
83733;BME280;73710;49.968;8.338;2024-01-07T06:00:28;100462.94;;;4.03;100.00
83733;BME280;73710;49.968;8.338;2024-01-07T06:02:54;100469.03;;;4.02;100.00
83733;BME280;73710;49.968;8.338;2024-01-07T06:05:19;100475.97;;;4.03;100.00
83733;BME280;73710;49.968;8.338;2024-01-07T06:07:44;100475.81;;;4.09;100.00
83733;BME280;73710;49.968;8.338;2024-01-07T06:10:10;100477.50;;;4.10;100.00
83733;BME280;73710;49.968;8.338;2024-01-07T06:12:35;100487.03;;;4.11;100.00
83733;BME280;73710;49.968;8.338;2024-01-07T06:15:00;100473.16;;;4.11;100.00
83733;BME280;73710;49.968;8.338;2024-01-07T06:17:26;100491.34;;;4.12;100.00
83733;BME280;73710;49.968;8.338;2024-01-07T06:19:51;100484.47;;;4.10;100.00
83733;BME280;73710;49.968;8.338;2024-01-07T06:22:17;100498.41;;;4.07;100.00
83733;BME280;73710;49.968;8.338;2024-01-07T06:24:42;100493.38;;;4.01;100.00
83733;BME280;73710;49.968;8.338;2024-01-07T06:27:07;100495.97;;;4.01;100.00
83733;BME280;73710;49.968;8.338;2024-01-07T06:29:33;100502.72;;;4.08;100.00
83733;BME280;73710;49.968;8.338;2024-01-07T06:31:59;100500.97;;;4.09;100.00
83733;BME280;73710;49.968;8.338;2024-01-07T06:34:24;100512.31;;;4.06;100.00
83733;BME280;73710;49.968;8.338;2024-01-07T06:36:49;100519.13;;;4.10;100.00
83733;BME280;73710;49.968;8.338;2024-01-07T06:39:15;100512.19;;;4.11;100.00
83733;BME280;73710;49.968;8.338;2024-01-07T06:41:40;100523.47;;;4.11;100.00
83733;BME280;73710;49.968;8.338;2024-01-07T06:44:05;100529.50;;;4.13;100.00
83733;BME280;73710;49.968;8.338;2024-01-07T06:46:31;100524.72;;;4.31;100.00
83733;BME280;73710;49.968;8.338;2024-01-07T06:48:56;100536.09;;;4.27;100.00
83733;BME280;73710;49.968;8.338;2024-01-07T06:51:21;100532.91;;;4.15;100.00
83733;BME280;73710;49.968;8.338;2024-01-07T06:53:47;100528.63;;;4.14;100.00
83733;BME280;73710;49.968;8.338;2024-01-07T06:56:13;100536.59;;;4.07;100.00
83733;BME280;73710;49.968;8.338;2024-01-07T06:58:38;100546.03;;;4.12;100.00
83733;BME280;73710;49.968;8.338;2024-01-07T07:01:06;100545.25;;;4.07;100.00
83733;BME280;73710;49.968;8.338;2024-01-07T07:03:32;100552.31;;;4.02;100.00
83733;BME280;73710;49.968;8.338;2024-01-07T07:05:57;100555.72;;;4.04;100.00
83733;BME280;73710;49.968;8.338;2024-01-07T07:08:22;100554.91;;;4.04;100.00
83733;BME280;73710;49.968;8.338;2024-01-07T07:10:48;100553.94;;;4.06;100.00
83733;BME280;73710;49.968;8.338;2024-01-07T07:13:13;100545.16;;;4.10;100.00
83733;BME280;73710;49.968;8.338;2024-01-07T07:15:39;100570.44;;;4.07;100.00
83733;BME280;73710;49.968;8.338;2024-01-07T07:18:05;100566.91;;;4.09;100.00
83733;BME280;73710;49.968;8.338;2024-01-07T07:20:30;100574.72;;;4.09;100.00
83733;BME280;73710;49.968;8.338;2024-01-07T07:22:56;100571.44;;;4.01;100.00
83733;BME280;73710;49.968;8.338;2024-01-07T07:25:22;100585.19;;;4.06;100.00
83733;BME280;73710;49.968;8.338;2024-01-07T07:27:47;100579.19;;;4.03;100.00
83733;BME280;73710;49.968;8.338;2024-01-07T07:30:13;100588.84;;;3.99;98.02
83733;BME280;73710;49.968;8.338;2024-01-07T07:32:39;100589.84;;;3.94;98.14
83733;BME280;73710;49.968;8.338;2024-01-07T07:35:06;100590.91;;;3.85;98.45
83733;BME280;73710;49.968;8.338;2024-01-07T07:37:32;100604.88;;;3.80;98.49
83733;BME280;73710;49.968;8.338;2024-01-07T07:39:58;100603.16;;;3.80;97.35
83733;BME280;73710;49.968;8.338;2024-01-07T07:42:23;100604.06;;;3.79;96.78
83733;BME280;73710;49.968;8.338;2024-01-07T07:44:48;100606.81;;;3.73;96.82
83733;BME280;73710;49.968;8.338;2024-01-07T07:47:14;100618.94;;;3.73;97.59
83733;BME280;73710;49.968;8.338;2024-01-07T07:49:39;100624.09;;;3.74;97.44
83733;BME280;73710;49.968;8.338;2024-01-07T07:52:07;100615.63;;;3.66;97.75
83733;BME280;73710;49.968;8.338;2024-01-07T07:54:33;100626.88;;;3.67;98.41
83733;BME280;73710;49.968;8.338;2024-01-07T07:56:59;100627.78;;;3.64;98.04
83733;BME280;73710;49.968;8.338;2024-01-07T07:59:24;100626.88;;;3.67;98.67
83733;BME280;73710;49.968;8.338;2024-01-07T08:01:49;100636.41;;;3.66;97.90
83733;BME280;73710;49.968;8.338;2024-01-07T08:04:15;100638.00;;;3.73;97.91
83733;BME280;73710;49.968;8.338;2024-01-07T08:06:40;100641.44;;;3.75;97.76
83733;BME280;73710;49.968;8.338;2024-01-07T08:09:08;100636.31;;;3.71;97.89
83733;BME280;73710;49.968;8.338;2024-01-07T08:11:33;100646.63;;;3.75;97.61
83733;BME280;73710;49.968;8.338;2024-01-07T08:13:59;100643.09;;;3.79;96.96
83733;BME280;73710;49.968;8.338;2024-01-07T08:16:26;100650.94;;;3.76;97.17
83733;BME280;73710;49.968;8.338;2024-01-07T08:18:51;100659.66;;;3.75;96.81
83733;BME280;73710;49.968;8.338;2024-01-07T08:21:17;100662.84;;;3.86;96.54
83733;BME280;73710;49.968;8.338;2024-01-07T08:23:42;100652.53;;;3.82;96.16
83733;BME280;73710;49.968;8.338;2024-01-07T08:26:07;100662.13;;;3.81;95.61
83733;BME280;73710;49.968;8.338;2024-01-07T08:28:33;100670.75;;;3.82;95.81
83733;BME280;73710;49.968;8.338;2024-01-07T08:30:58;100675.13;;;3.81;95.83
83733;BME280;73710;49.968;8.338;2024-01-07T08:33:24;100677.50;;;3.90;95.85
83733;BME280;73710;49.968;8.338;2024-01-07T08:35:49;100687.78;;;3.96;95.66
83733;BME280;73710;49.968;8.338;2024-01-07T08:38:15;100694.72;;;3.97;95.44
83733;BME280;73710;49.968;8.338;2024-01-07T08:40:40;100685.34;;;3.89;95.40
83733;BME280;73710;49.968;8.338;2024-01-07T08:43:05;100701.88;;;3.86;93.64
83733;BME280;73710;49.968;8.338;2024-01-07T08:45:31;100693.19;;;3.87;93.58
83733;BME280;73710;49.968;8.338;2024-01-07T08:47:56;100683.66;;;3.86;93.24
83733;BME280;73710;49.968;8.338;2024-01-07T08:50:21;100694.16;;;3.83;93.20
83733;BME280;73710;49.968;8.338;2024-01-07T08:52:47;100691.50;;;3.85;93.35
83733;BME280;73710;49.968;8.338;2024-01-07T08:55:12;100689.69;;;3.88;93.60
83733;BME280;73710;49.968;8.338;2024-01-07T08:57:38;100704.22;;;3.98;93.70
83733;BME280;73710;49.968;8.338;2024-01-07T09:00:05;100701.53;;;4.03;92.67
83733;BME280;73710;49.968;8.338;2024-01-07T09:02:32;100713.63;;;4.05;92.18
83733;BME280;73710;49.968;8.338;2024-01-07T09:04:58;100705.78;;;4.07;91.75
83733;BME280;73710;49.968;8.338;2024-01-07T09:07:24;100716.84;;;4.17;91.77
83733;BME280;73710;49.968;8.338;2024-01-07T09:09:49;100718.69;;;4.11;91.84
83733;BME280;73710;49.968;8.338;2024-01-07T09:12:15;100724.91;;;4.04;91.49
83733;BME280;73710;49.968;8.338;2024-01-07T09:14:40;100728.28;;;4.09;92.17
83733;BME280;73710;49.968;8.338;2024-01-07T09:17:06;100735.16;;;4.12;91.81
83733;BME280;73710;49.968;8.338;2024-01-07T09:19:31;100733.53;;;4.08;90.54
83733;BME280;73710;49.968;8.338;2024-01-07T09:21:56;100735.25;;;4.07;90.50
83733;BME280;73710;49.968;8.338;2024-01-07T09:24:22;100739.66;;;4.05;90.47
83733;BME280;73710;49.968;8.338;2024-01-07T09:26:47;100749.06;;;4.11;89.49
83733;BME280;73710;49.968;8.338;2024-01-07T09:29:13;100753.16;;;4.23;89.60
83733;BME280;73710;49.968;8.338;2024-01-07T09:31:39;100751.44;;;4.22;87.33
83733;BME280;73710;49.968;8.338;2024-01-07T09:34:04;100756.91;;;4.09;87.18
83733;BME280;73710;49.968;8.338;2024-01-07T09:36:32;100758.56;;;4.13;86.49
83733;BME280;73710;49.968;8.338;2024-01-07T09:38:58;100770.69;;;4.14;86.14
83733;BME280;73710;49.968;8.338;2024-01-07T09:41:23;100769.06;;;4.09;86.51
83733;BME280;73710;49.968;8.338;2024-01-07T09:43:51;100767.28;;;4.12;86.71
83733;BME280;73710;49.968;8.338;2024-01-07T09:46:17;100776.09;;;4.05;86.50
83733;BME280;73710;49.968;8.338;2024-01-07T09:48:42;100775.25;;;4.03;86.52
83733;BME280;73710;49.968;8.338;2024-01-07T09:51:09;100777.91;;;4.00;85.67
83733;BME280;73710;49.968;8.338;2024-01-07T09:53:38;100785.00;;;3.94;85.15
83733;BME280;73710;49.968;8.338;2024-01-07T09:56:12;100777.91;;;4.00;85.88
83733;BME280;73710;49.968;8.338;2024-01-07T09:58:40;100781.22;;;4.08;84.66
83733;BME280;73710;49.968;8.338;2024-01-07T10:01:07;100773.47;;;4.05;85.21
83733;BME280;73710;49.968;8.338;2024-01-07T10:03:33;100781.22;;;4.08;84.79
83733;BME280;73710;49.968;8.338;2024-01-07T10:05:58;100788.00;;;4.15;84.86
83733;BME280;73710;49.968;8.338;2024-01-07T10:08:23;100793.22;;;4.15;84.34
83733;BME280;73710;49.968;8.338;2024-01-07T10:10:49;100793.31;;;4.12;83.85
83733;BME280;73710;49.968;8.338;2024-01-07T10:13:14;100793.31;;;4.12;83.85
83733;BME280;73710;49.968;8.338;2024-01-07T10:15:40;100795.78;;;4.19;83.65
83733;BME280;73710;49.968;8.338;2024-01-07T10:18:06;100800.84;;;4.25;84.05
83733;BME280;73710;49.968;8.338;2024-01-07T10:20:33;100800.00;;;4.24;83.58
83733;BME280;73710;49.968;8.338;2024-01-07T10:23:00;100799.84;;;4.30;81.13
83733;BME280;73710;49.968;8.338;2024-01-07T10:25:25;100802.81;;;4.13;80.96
83733;BME280;73710;49.968;8.338;2024-01-07T10:27:51;100810.84;;;4.03;81.59
83733;BME280;73710;49.968;8.338;2024-01-07T10:30:17;100811.88;;;3.96;81.84
83733;BME280;73710;49.968;8.338;2024-01-07T10:32:42;100817.81;;;4.01;81.21
83733;BME280;73710;49.968;8.338;2024-01-07T10:35:12;100806.38;;;4.09;81.39
83733;BME280;73710;49.968;8.338;2024-01-07T10:37:37;100809.09;;;4.03;81.30
83733;BME280;73710;49.968;8.338;2024-01-07T10:40:03;100816.81;;;4.08;80.69
83733;BME280;73710;49.968;8.338;2024-01-07T10:42:32;100812.44;;;4.08;80.91
83733;BME280;73710;49.968;8.338;2024-01-07T10:45:01;100807.72;;;4.27;81.01
83733;BME280;73710;49.968;8.338;2024-01-07T10:47:31;100815.38;;;4.35;80.22
83733;BME280;73710;49.968;8.338;2024-01-07T10:49:57;100812.44;;;4.08;80.74
83733;BME280;73710;49.968;8.338;2024-01-07T10:52:26;100814.03;;;4.15;80.94
83733;BME280;73710;49.968;8.338;2024-01-07T10:54:53;100816.75;;;4.11;80.23
83733;BME280;73710;49.968;8.338;2024-01-07T10:57:32;100797.66;;;4.12;81.27
83733;BME280;73710;49.968;8.338;2024-01-07T11:00:00;100803.63;;;4.15;79.45
83733;BME280;73710;49.968;8.338;2024-01-07T11:02:26;100814.66;;;4.28;79.42
83733;BME280;73710;49.968;8.338;2024-01-07T11:07:36;100812.41;;;4.11;79.01
83733;BME280;73710;49.968;8.338;2024-01-07T11:10:10;100821.59;;;4.28;80.13
83733;BME280;73710;49.968;8.338;2024-01-07T11:12:37;100819.22;;;4.19;78.57
83733;BME280;73710;49.968;8.338;2024-01-07T11:15:03;100817.56;;;4.14;78.64
83733;BME280;73710;49.968;8.338;2024-01-07T11:19:57;100809.84;;;4.08;77.56
83733;BME280;73710;49.968;8.338;2024-01-07T11:22:26;100832.28;;;4.15;77.96
83733;BME280;73710;49.968;8.338;2024-01-07T11:24:55;100833.25;;;4.10;78.83
83733;BME280;73710;49.968;8.338;2024-01-07T11:27:24;100824.34;;;4.22;78.04
83733;BME280;73710;49.968;8.338;2024-01-07T11:30:37;100836.34;;;4.29;78.24
83733;BME280;73710;49.968;8.338;2024-01-07T11:32:42;100836.91;;;4.01;76.93
83733;BME280;73710;49.968;8.338;2024-01-07T11:35:07;100830.03;;;3.97;77.44
83733;BME280;73710;49.968;8.338;2024-01-07T11:37:33;100832.81;;;3.90;77.50
83733;BME280;73710;49.968;8.338;2024-01-07T11:39:58;100831.13;;;3.86;76.84
83733;BME280;73710;49.968;8.338;2024-01-07T11:42:24;100831.19;;;3.83;76.71
83733;BME280;73710;49.968;8.338;2024-01-07T11:44:52;100839.53;;;4.00;75.86
83733;BME280;73710;49.968;8.338;2024-01-07T11:47:19;100835.22;;;3.99;75.93
83733;BME280;73710;49.968;8.338;2024-01-07T11:49:45;100830.03;;;3.97;75.46
83733;BME280;73710;49.968;8.338;2024-01-07T11:52:11;100831.03;;;3.92;76.95
83733;BME280;73710;49.968;8.338;2024-01-07T11:54:40;100834.34;;;3.98;77.07
83733;BME280;73710;49.968;8.338;2024-01-07T11:57:06;100835.00;;;4.09;76.70
83733;BME280;73710;49.968;8.338;2024-01-07T11:59:36;100841.66;;;4.24;75.73
83733;BME280;73710;49.968;8.338;2024-01-07T12:02:03;100845.38;;;4.12;76.44
83733;BME280;73710;49.968;8.338;2024-01-07T12:04:32;100848.97;;;4.05;76.05
83733;BME280;73710;49.968;8.338;2024-01-07T12:06:58;100849.88;;;4.03;75.91
83733;BME280;73710;49.968;8.338;2024-01-07T12:09:24;100850.63;;;4.09;75.54
83733;BME280;73710;49.968;8.338;2024-01-07T12:11:49;100847.59;;;3.88;75.16
83733;BME280;73710;49.968;8.338;2024-01-07T12:14:16;100849.38;;;3.84;75.97
83733;BME280;73710;49.968;8.338;2024-01-07T12:16:42;100851.25;;;3.76;75.20
83733;BME280;73710;49.968;8.338;2024-01-07T12:19:10;100852.22;;;3.71;76.00
83733;BME280;73710;49.968;8.338;2024-01-07T12:21:36;100856.47;;;3.76;75.60
83733;BME280;73710;49.968;8.338;2024-01-07T12:24:03;100851.09;;;3.84;74.95
83733;BME280;73710;49.968;8.338;2024-01-07T12:26:29;100856.56;;;3.70;74.93
83733;BME280;73710;49.968;8.338;2024-01-07T12:28:57;100858.41;;;3.65;76.53
83733;BME280;73710;49.968;8.338;2024-01-07T12:31:26;100853.69;;;3.84;75.82
83733;BME280;73710;49.968;8.338;2024-01-07T12:33:52;100860.00;;;3.72;75.44
83733;BME280;73710;49.968;8.338;2024-01-07T12:36:21;100863.41;;;3.77;75.91
83733;BME280;73710;49.968;8.338;2024-01-07T12:38:46;100863.19;;;3.86;75.79
83733;BME280;73710;49.968;8.338;2024-01-07T12:41:12;100866.41;;;4.02;76.05
83733;BME280;73710;49.968;8.338;2024-01-07T12:43:37;100871.06;;;4.28;74.45
83733;BME280;73710;49.968;8.338;2024-01-07T12:46:03;100855.00;;;4.49;72.44
83733;BME280;73710;49.968;8.338;2024-01-07T12:48:30;100855.63;;;4.20;72.49
83733;BME280;73710;49.968;8.338;2024-01-07T12:50:56;100867.09;;;4.10;73.12
83733;BME280;73710;49.968;8.338;2024-01-07T12:53:21;100858.97;;;3.81;73.75
83733;BME280;73710;49.968;8.338;2024-01-07T12:55:47;100867.50;;;3.89;73.17
83733;BME280;73710;49.968;8.338;2024-01-07T12:58:12;100889.00;;;3.98;73.62
83733;BME280;73710;49.968;8.338;2024-01-07T13:00:37;100878.94;;;3.80;73.09
83733;BME280;73710;49.968;8.338;2024-01-07T13:03:04;100875.75;;;3.65;73.90
83733;BME280;73710;49.968;8.338;2024-01-07T13:05:32;100885.72;;;3.40;75.13
83733;BME280;73710;49.968;8.338;2024-01-07T13:07:57;100888.53;;;3.28;74.80
83733;BME280;73710;49.968;8.338;2024-01-07T13:10:22;100885.31;;;3.11;75.48
83733;BME280;73710;49.968;8.338;2024-01-07T13:12:49;100887.78;;;3.20;75.94
83733;BME280;73710;49.968;8.338;2024-01-07T13:15:14;100888.44;;;3.31;75.31
83733;BME280;73710;49.968;8.338;2024-01-07T13:17:39;100894.69;;;3.21;75.32
83733;BME280;73710;49.968;8.338;2024-01-07T13:20:06;100895.69;;;3.12;76.36
83733;BME280;73710;49.968;8.338;2024-01-07T13:22:32;100889.66;;;3.10;75.39
83733;BME280;73710;49.968;8.338;2024-01-07T13:24:57;100896.69;;;3.02;75.26
83733;BME280;73710;49.968;8.338;2024-01-07T13:27:23;100902.56;;;3.15;75.24
83733;BME280;73710;49.968;8.338;2024-01-07T13:29:49;100901.00;;;3.05;75.67
83733;BME280;73710;49.968;8.338;2024-01-07T13:32:15;100902.53;;;3.18;75.40
83733;BME280;73710;49.968;8.338;2024-01-07T13:34:42;100910.28;;;3.21;74.00
83733;BME280;73710;49.968;8.338;2024-01-07T13:37:08;100907.69;;;3.21;74.47
83733;BME280;73710;49.968;8.338;2024-01-07T13:39:33;100913.94;;;3.08;74.40
83733;BME280;73710;49.968;8.338;2024-01-07T13:41:59;100915.69;;;3.06;74.63
83733;BME280;73710;49.968;8.338;2024-01-07T13:44:24;100921.78;;;3.05;74.20
83733;BME280;73710;49.968;8.338;2024-01-07T13:46:49;100919.41;;;2.90;74.39
83733;BME280;73710;49.968;8.338;2024-01-07T13:49:17;100923.66;;;2.94;74.39
83733;BME280;73710;49.968;8.338;2024-01-07T13:51:44;100937.63;;;2.87;75.03
83733;BME280;73710;49.968;8.338;2024-01-07T13:54:10;100930.22;;;2.58;74.32
83733;BME280;73710;49.968;8.338;2024-01-07T13:56:38;100933.56;;;2.68;74.86
83733;BME280;73710;49.968;8.338;2024-01-07T13:59:07;100939.47;;;2.79;74.66
83733;BME280;73710;49.968;8.338;2024-01-07T14:01:32;100947.13;;;2.88;74.89
83733;BME280;73710;49.968;8.338;2024-01-07T14:03:57;100946.97;;;3.00;74.48
83733;BME280;73710;49.968;8.338;2024-01-07T14:06:23;100954.16;;;2.83;72.92
83733;BME280;73710;49.968;8.338;2024-01-07T14:08:48;100951.00;;;2.58;71.99
83733;BME280;73710;49.968;8.338;2024-01-07T14:11:13;100942.44;;;2.50;72.04
83733;BME280;73710;49.968;8.338;2024-01-07T14:13:39;100960.72;;;2.41;73.09
83733;BME280;73710;49.968;8.338;2024-01-07T14:16:05;100959.00;;;2.38;72.88
83733;BME280;73710;49.968;8.338;2024-01-07T14:18:30;100963.44;;;2.32;73.55
83733;BME280;73710;49.968;8.338;2024-01-07T14:20:56;100973.81;;;2.32;73.92
83733;BME280;73710;49.968;8.338;2024-01-07T14:23:21;100969.47;;;2.31;74.52
83733;BME280;73710;49.968;8.338;2024-01-07T14:25:47;100972.94;;;2.31;74.00
83733;BME280;73710;49.968;8.338;2024-01-07T14:28:12;100982.47;;;2.28;73.98
83733;BME280;73710;49.968;8.338;2024-01-07T14:30:38;100971.25;;;2.27;73.98
83733;BME280;73710;49.968;8.338;2024-01-07T14:33:03;100984.22;;;2.29;74.69
83733;BME280;73710;49.968;8.338;2024-01-07T14:35:29;100986.03;;;2.21;73.23
83733;BME280;73710;49.968;8.338;2024-01-07T14:37:57;100998.41;;;1.92;73.81
83733;BME280;73710;49.968;8.338;2024-01-07T14:40:23;101003.56;;;1.96;74.23
83733;BME280;73710;49.968;8.338;2024-01-07T14:42:48;100994.06;;;1.97;74.62
83733;BME280;73710;49.968;8.338;2024-01-07T14:45:14;100998.41;;;1.95;74.52
83733;BME280;73710;49.968;8.338;2024-01-07T14:47:39;101007.91;;;1.94;75.17
83733;BME280;73710;49.968;8.338;2024-01-07T14:50:06;101007.84;;;1.97;75.24
83733;BME280;73710;49.968;8.338;2024-01-07T14:52:32;101017.41;;;1.94;75.50
83733;BME280;73710;49.968;8.338;2024-01-07T14:54:57;101019.22;;;1.86;75.55
83733;BME280;73710;49.968;8.338;2024-01-07T14:57:23;101029.59;;;1.81;76.46
83733;BME280;73710;49.968;8.338;2024-01-07T14:59:49;101027.94;;;1.76;75.07
83733;BME280;73710;49.968;8.338;2024-01-07T15:02:14;101034.13;;;1.55;74.51
83733;BME280;73710;49.968;8.338;2024-01-07T15:04:39;101030.72;;;1.47;75.18
83733;BME280;73710;49.968;8.338;2024-01-07T15:07:05;101033.34;;;1.42;75.24
83733;BME280;73710;49.968;8.338;2024-01-07T15:09:30;101029.91;;;1.39;75.12
83733;BME280;73710;49.968;8.338;2024-01-07T15:11:56;101048.94;;;1.36;75.24
83733;BME280;73710;49.968;8.338;2024-01-07T15:14:22;101043.75;;;1.36;75.17
83733;BME280;73710;49.968;8.338;2024-01-07T15:16:48;101046.28;;;1.44;74.29
83733;BME280;73710;49.968;8.338;2024-01-07T15:19:19;101048.06;;;1.36;74.15
83733;BME280;73710;49.968;8.338;2024-01-07T15:21:44;101053.31;;;1.27;74.45
83733;BME280;73710;49.968;8.338;2024-01-07T15:24:10;101061.09;;;1.27;74.03
83733;BME280;73710;49.968;8.338;2024-01-07T15:26:35;101064.59;;;1.17;73.74
83733;BME280;73710;49.968;8.338;2024-01-07T15:29:01;101082.78;;;1.05;73.81
83733;BME280;73710;49.968;8.338;2024-01-07T15:31:27;101080.16;;;1.11;73.89
83733;BME280;73710;49.968;8.338;2024-01-07T15:33:52;101077.59;;;1.05;74.45
83733;BME280;73710;49.968;8.338;2024-01-07T15:36:18;101084.53;;;0.94;74.45
83733;BME280;73710;49.968;8.338;2024-01-07T15:38:43;101089.72;;;0.95;74.53
83733;BME280;73710;49.968;8.338;2024-01-07T15:41:08;101087.97;;;0.93;74.19
83733;BME280;73710;49.968;8.338;2024-01-07T15:43:34;101098.38;;;0.90;73.44
83733;BME280;73710;49.968;8.338;2024-01-07T15:45:59;101095.78;;;0.85;73.33
83733;BME280;73710;49.968;8.338;2024-01-07T15:48:25;101094.97;;;0.80;72.80
83733;BME280;73710;49.968;8.338;2024-01-07T15:50:50;101113.06;;;0.78;71.89
83733;BME280;73710;49.968;8.338;2024-01-07T15:53:15;101108.78;;;0.71;72.13
83733;BME280;73710;49.968;8.338;2024-01-07T15:55:41;101109.63;;;0.75;71.74
83733;BME280;73710;49.968;8.338;2024-01-07T15:58:06;101119.13;;;0.71;71.94
83733;BME280;73710;49.968;8.338;2024-01-07T16:00:32;101113.06;;;0.68;72.11
83733;BME280;73710;49.968;8.338;2024-01-07T16:02:57;101117.41;;;0.73;72.10
83733;BME280;73710;49.968;8.338;2024-01-07T16:05:24;101114.78;;;0.76;72.00
83733;BME280;73710;49.968;8.338;2024-01-07T16:07:51;101126.88;;;0.76;71.25
83733;BME280;73710;49.968;8.338;2024-01-07T16:10:16;101132.06;;;0.70;71.07
83733;BME280;73710;49.968;8.338;2024-01-07T16:12:42;101138.97;;;0.62;70.92
83733;BME280;73710;49.968;8.338;2024-01-07T16:15:08;101138.16;;;0.55;70.44
83733;BME280;73710;49.968;8.338;2024-01-07T16:17:34;101151.06;;;0.43;70.30
83733;BME280;73710;49.968;8.338;2024-01-07T16:19:59;101158.84;;;0.40;70.86
83733;BME280;73710;49.968;8.338;2024-01-07T16:22:25;101162.28;;;0.51;70.78
83733;BME280;73710;49.968;8.338;2024-01-07T16:24:50;101162.28;;;0.39;70.06
83733;BME280;73710;49.968;8.338;2024-01-07T16:27:16;101162.31;;;0.47;70.20
83733;BME280;73710;49.968;8.338;2024-01-07T16:29:41;101168.34;;;0.43;70.39
83733;BME280;73710;49.968;8.338;2024-01-07T16:32:07;101174.38;;;0.28;69.77
83733;BME280;73710;49.968;8.338;2024-01-07T16:34:32;101153.66;;;0.16;67.72
83733;BME280;73710;49.968;8.338;2024-01-07T16:36:57;101176.09;;;0.14;67.99
83733;BME280;73710;49.968;8.338;2024-01-07T16:39:23;101189.03;;;0.14;67.34
83733;BME280;73710;49.968;8.338;2024-01-07T16:41:49;101186.44;;;0.14;66.75
83733;BME280;73710;49.968;8.338;2024-01-07T16:44:22;101187.28;;;0.06;66.41
83733;BME280;73710;49.968;8.338;2024-01-07T16:46:49;101186.41;;;-0.01;66.53
83733;BME280;73710;49.968;8.338;2024-01-07T16:49:14;101185.53;;;0.02;66.23
83733;BME280;73710;49.968;8.338;2024-01-07T16:51:39;101187.25;;;-0.04;65.70
83733;BME280;73710;49.968;8.338;2024-01-07T16:54:05;101181.22;;;-0.01;66.66
83733;BME280;73710;49.968;8.338;2024-01-07T16:56:30;101186.41;;;0.04;67.18
83733;BME280;73710;49.968;8.338;2024-01-07T16:58:56;101194.16;;;-0.01;67.32
83733;BME280;73710;49.968;8.338;2024-01-07T17:01:21;101180.34;;;-0.02;67.47
83733;BME280;73710;49.968;8.338;2024-01-07T17:03:46;101195.88;;;-0.03;66.73
83733;BME280;73710;49.968;8.338;2024-01-07T17:06:12;101194.97;;;-0.08;67.70
83733;BME280;73710;49.968;8.338;2024-01-07T17:08:37;101198.44;;;-0.06;66.07
83733;BME280;73710;49.968;8.338;2024-01-07T17:11:03;101202.75;;;-0.11;65.69
83733;BME280;73710;49.968;8.338;2024-01-07T17:13:28;101210.47;;;-0.14;65.86
83733;BME280;73710;49.968;8.338;2024-01-07T17:15:55;101219.09;;;-0.18;65.29
83733;BME280;73710;49.968;8.338;2024-01-07T17:18:20;101212.19;;;-0.22;66.46
83733;BME280;73710;49.968;8.338;2024-01-07T17:20:46;101222.53;;;-0.25;66.96
83733;BME280;73710;49.968;8.338;2024-01-07T17:23:14;101232.03;;;-0.23;66.24
83733;BME280;73710;49.968;8.338;2024-01-07T17:25:46;101229.41;;;-0.24;65.45
83733;BME280;73710;49.968;8.338;2024-01-07T17:28:11;101234.56;;;-0.30;63.94
83733;BME280;73710;49.968;8.338;2024-01-07T17:30:37;101250.06;;;-0.33;63.86
83733;BME280;73710;49.968;8.338;2024-01-07T17:33:03;101255.22;;;-0.39;63.97
83733;BME280;73710;49.968;8.338;2024-01-07T17:35:31;101252.63;;;-0.38;63.99
83733;BME280;73710;49.968;8.338;2024-01-07T17:37:56;101258.66;;;-0.37;64.50
83733;BME280;73710;49.968;8.338;2024-01-07T17:40:22;101270.69;;;-0.45;63.61
83733;BME280;73710;49.968;8.338;2024-01-07T17:42:47;101274.13;;;-0.45;64.25
83733;BME280;73710;49.968;8.338;2024-01-07T17:45:13;101276.72;;;-0.40;64.99
83733;BME280;73710;49.968;8.338;2024-01-07T17:47:40;101280.22;;;-0.31;64.14
83733;BME280;73710;49.968;8.338;2024-01-07T17:50:06;101277.63;;;-0.35;64.03
83733;BME280;73710;49.968;8.338;2024-01-07T17:52:34;101277.63;;;-0.35;63.38
83733;BME280;73710;49.968;8.338;2024-01-07T17:54:59;101280.19;;;-0.40;64.17
83733;BME280;73710;49.968;8.338;2024-01-07T17:57:26;101286.22;;;-0.35;64.51
83733;BME280;73710;49.968;8.338;2024-01-07T17:59:51;101287.94;;;-0.38;64.31